createdAt,value
2023-06-29T00:00:24.839Z,0.90
2023-06-29T00:02:51.950Z,0.83
2023-06-29T00:05:22.603Z,1.23
2023-06-29T00:07:49.952Z,2.13
2023-06-29T00:10:17.007Z,1.20
2023-06-29T00:12:43.852Z,0.93
2023-06-29T00:15:11.021Z,1.30
2023-06-29T00:17:37.913Z,1.57
2023-06-29T00:20:10.388Z,1.43
2023-06-29T00:22:37.393Z,1.07
2023-06-29T00:25:04.613Z,1.90
2023-06-29T00:27:31.330Z,1.00
2023-06-29T00:29:58.005Z,1.80
2023-06-29T00:32:24.889Z,1.20
2023-06-29T00:34:51.608Z,2.27
2023-06-29T00:37:18.417Z,1.10
2023-06-29T00:39:45.377Z,1.87
2023-06-29T00:42:12.132Z,1.50
2023-06-29T00:44:38.775Z,1.50
2023-06-29T00:47:05.929Z,1.17
2023-06-29T00:49:32.832Z,1.90
2023-06-29T00:51:59.510Z,1.60
2023-06-29T00:54:26.573Z,1.70
2023-06-29T00:56:53.679Z,1.47
2023-06-29T00:59:20.847Z,1.20
2023-06-29T01:01:47.591Z,1.03
2023-06-29T01:04:18.508Z,1.83
2023-06-29T01:07:27.722Z,1.33
2023-06-29T01:09:55.632Z,1.00
2023-06-29T01:12:23.025Z,2.20
2023-06-29T01:14:51.257Z,1.90
2023-06-29T01:17:23.510Z,1.10
2023-06-29T01:19:52.968Z,1.93
2023-06-29T01:22:30.967Z,1.03
2023-06-29T01:25:00.621Z,1.00
2023-06-29T01:27:27.970Z,0.80
2023-06-29T01:29:56.418Z,2.17
2023-06-29T01:32:26.692Z,1.40
2023-06-29T01:34:53.435Z,3.13
2023-06-29T01:37:24.726Z,0.83
2023-06-29T01:39:53.071Z,1.03
2023-06-29T01:42:21.774Z,1.70
2023-06-29T01:44:49.370Z,0.67
2023-06-29T01:47:18.126Z,1.07
2023-06-29T01:49:45.287Z,0.70
2023-06-29T01:52:12.021Z,1.30
2023-06-29T01:54:38.755Z,1.73
2023-06-29T01:57:06.729Z,1.83
2023-06-29T01:59:33.448Z,0.70
2023-06-29T02:02:00.402Z,1.43
2023-06-29T02:04:27.200Z,1.27
2023-06-29T02:06:53.871Z,2.50
2023-06-29T02:09:20.504Z,1.20
2023-06-29T02:11:47.178Z,1.30
2023-06-29T02:14:14.150Z,1.57
2023-06-29T02:16:40.910Z,1.60
2023-06-29T02:19:07.657Z,1.70
2023-06-29T02:21:34.316Z,1.57
2023-06-29T02:24:01.100Z,1.10
2023-06-29T02:26:27.868Z,1.90
2023-06-29T02:28:54.549Z,1.63
2023-06-29T02:31:21.259Z,1.37
2023-06-29T02:33:48.902Z,1.80
2023-06-29T02:36:16.519Z,1.50
2023-06-29T02:38:43.420Z,2.03
2023-06-29T02:41:10.055Z,1.23
2023-06-29T02:43:36.761Z,1.93
2023-06-29T02:46:03.472Z,1.50
2023-06-29T02:48:30.163Z,3.43
2023-06-29T02:50:57.532Z,1.80
2023-06-29T02:53:24.202Z,2.43
2023-06-29T02:55:50.843Z,2.70
2023-06-29T02:58:17.523Z,1.27
2023-06-29T03:00:44.255Z,1.63
2023-06-29T03:03:11.170Z,1.13
2023-06-29T03:05:38.003Z,1.20
2023-06-29T03:08:05.391Z,1.77
2023-06-29T03:10:32.147Z,1.37
2023-06-29T03:12:58.807Z,1.33
2023-06-29T03:15:25.442Z,1.70
2023-06-29T03:17:52.284Z,1.50
2023-06-29T03:20:19.014Z,1.70
2023-06-29T03:22:47.974Z,0.80
2023-06-29T03:25:14.637Z,1.97
2023-06-29T03:27:41.416Z,2.20
2023-06-29T03:30:08.620Z,1.27
2023-06-29T03:32:35.305Z,1.17
2023-06-29T03:35:02.104Z,2.27
2023-06-29T03:37:28.816Z,1.53
2023-06-29T03:39:55.434Z,1.47
2023-06-29T03:42:22.056Z,0.87
2023-06-29T03:44:48.675Z,1.17
2023-06-29T03:47:15.465Z,1.27
2023-06-29T03:49:42.224Z,0.60
2023-06-29T03:52:08.899Z,1.77
2023-06-29T03:54:35.560Z,1.50
2023-06-29T03:57:03.057Z,0.93
2023-06-29T03:59:29.847Z,1.00
2023-06-29T04:01:56.558Z,1.70
2023-06-29T04:04:23.211Z,0.80
2023-06-29T04:06:50.186Z,1.13
2023-06-29T04:09:16.865Z,1.17
2023-06-29T04:11:43.484Z,1.60
2023-06-29T04:14:10.114Z,1.63
2023-06-29T04:16:37.102Z,1.17
2023-06-29T04:19:03.798Z,2.50
2023-06-29T04:21:30.434Z,1.07
2023-06-29T04:23:57.036Z,1.67
2023-06-29T04:26:24.162Z,1.03
2023-06-29T04:28:51.702Z,1.10
2023-06-29T04:31:18.367Z,1.57
2023-06-29T04:33:45.263Z,1.07
2023-06-29T04:36:14.375Z,1.77
2023-06-29T04:38:41.032Z,1.00
2023-06-29T04:41:08.260Z,0.80
2023-06-29T04:43:37.779Z,1.23
2023-06-29T04:46:05.209Z,1.20
2023-06-29T04:48:38.178Z,1.57
2023-06-29T04:51:06.501Z,0.90
2023-06-29T04:53:37.083Z,1.00
2023-06-29T04:56:03.929Z,1.63
2023-06-29T04:58:31.196Z,1.97
2023-06-29T05:00:58.256Z,1.03
2023-06-29T05:03:26.283Z,2.57
2023-06-29T05:05:53.355Z,0.77
2023-06-29T05:08:20.296Z,1.50
2023-06-29T05:10:47.043Z,1.43
2023-06-29T05:13:13.809Z,1.40
2023-06-29T05:15:40.609Z,0.93
2023-06-29T05:18:07.408Z,1.37
2023-06-29T05:20:34.312Z,1.17
2023-06-29T05:23:01.507Z,1.43
2023-06-29T05:25:28.143Z,2.33
2023-06-29T05:27:54.913Z,1.40
2023-06-29T05:30:21.551Z,1.90
2023-06-29T05:32:48.242Z,2.70
2023-06-29T05:35:14.965Z,1.53
2023-06-29T05:37:41.757Z,2.40
2023-06-29T05:40:09.494Z,2.17
2023-06-29T05:42:36.415Z,1.47
2023-06-29T05:45:03.966Z,1.43
2023-06-29T05:47:30.645Z,1.93
2023-06-29T05:49:57.407Z,1.30
2023-06-29T05:52:24.140Z,1.03
2023-06-29T05:54:50.791Z,1.73
2023-06-29T05:57:17.450Z,1.47
2023-06-29T05:59:44.119Z,1.83
2023-06-29T06:02:10.744Z,2.30
2023-06-29T06:04:37.738Z,2.20
2023-06-29T06:07:04.903Z,1.93
2023-06-29T06:09:31.639Z,2.80
2023-06-29T06:11:58.302Z,1.13
2023-06-29T06:14:24.995Z,1.77
2023-06-29T06:16:51.646Z,1.57
2023-06-29T06:19:18.296Z,1.33
2023-06-29T06:21:44.947Z,1.80
2023-06-29T06:24:11.795Z,1.20
2023-06-29T06:26:38.415Z,2.20
2023-06-29T06:29:05.042Z,0.70
2023-06-29T06:31:34.002Z,1.30
2023-06-29T06:34:01.165Z,1.50
2023-06-29T06:36:31.196Z,2.30
2023-06-29T06:38:58.085Z,1.83
2023-06-29T06:41:24.688Z,1.43
2023-06-29T06:43:51.399Z,2.13
2023-06-29T06:46:18.183Z,2.00
2023-06-29T06:48:44.836Z,2.67
2023-06-29T06:51:11.729Z,1.57
2023-06-29T06:53:38.467Z,1.53
2023-06-29T06:56:05.255Z,2.10
2023-06-29T06:58:32.171Z,1.70
2023-06-29T07:00:59.163Z,2.27
2023-06-29T07:03:27.179Z,2.00
2023-06-29T07:05:54.777Z,1.53
2023-06-29T07:08:22.354Z,1.90
2023-06-29T07:10:49.484Z,1.50
2023-06-29T07:13:16.187Z,1.30
2023-06-29T07:15:42.847Z,1.40
2023-06-29T07:18:09.488Z,1.43
2023-06-29T07:25:35.370Z,1.40
2023-06-29T07:28:02.017Z,2.00
2023-06-29T07:30:28.700Z,2.27
2023-06-29T07:32:55.372Z,1.27
2023-06-29T07:35:22.155Z,1.23
2023-06-29T07:37:49.427Z,2.00
2023-06-29T07:40:16.149Z,2.27
2023-06-29T07:42:42.882Z,1.23
2023-06-29T07:45:09.750Z,1.13
2023-06-29T07:47:36.637Z,1.10
2023-06-29T07:50:03.454Z,1.47
2023-06-29T07:52:32.069Z,1.53
2023-06-29T07:54:58.774Z,1.80
2023-06-29T07:59:55.048Z,1.57
2023-06-29T08:02:21.997Z,1.10
2023-06-29T08:07:18.284Z,1.40
2023-06-29T08:09:45.007Z,1.87
2023-06-29T08:12:11.683Z,1.30
2023-06-29T08:14:39.064Z,1.87
2023-06-29T08:17:06.010Z,0.90
2023-06-29T08:19:32.913Z,2.40
2023-06-29T08:21:59.578Z,1.20
2023-06-29T08:24:26.227Z,1.97
2023-06-29T08:26:52.892Z,1.67
2023-06-29T08:29:20.614Z,1.93
2023-06-29T08:31:47.385Z,3.17
2023-06-29T08:34:14.203Z,1.63
2023-06-29T08:36:40.864Z,1.63
2023-06-29T08:39:09.004Z,2.00
2023-06-29T08:41:36.381Z,1.17
2023-06-29T08:44:05.413Z,2.23
2023-06-29T08:46:32.805Z,1.63
2023-06-29T08:49:01.100Z,3.03
2023-06-29T08:51:29.948Z,2.10
2023-06-29T08:53:57.498Z,2.03
2023-06-29T08:56:24.858Z,1.30
2023-06-29T08:58:52.348Z,1.80
2023-06-29T09:01:19.768Z,1.53
2023-06-29T09:03:47.396Z,1.60
2023-06-29T09:06:15.884Z,2.50
2023-06-29T09:08:43.130Z,2.10
2023-06-29T09:11:09.896Z,5.47
2023-06-29T09:13:36.587Z,1.30
2023-06-29T09:16:04.418Z,2.17
2023-06-29T09:18:33.478Z,2.00
2023-06-29T09:21:00.158Z,2.70
2023-06-29T09:23:27.515Z,2.90
2023-06-29T09:25:56.867Z,2.00
2023-06-29T09:28:23.926Z,4.30
2023-06-29T09:30:50.918Z,0.87
2023-06-29T09:33:18.039Z,2.33
2023-06-29T09:35:51.194Z,1.43
2023-06-29T09:38:18.295Z,1.20
2023-06-29T09:40:53.279Z,2.37
2023-06-29T09:43:27.501Z,3.03
2023-06-29T09:46:08.419Z,2.00
2023-06-29T09:51:22.519Z,2.40
2023-06-29T09:53:49.772Z,1.43
2023-06-29T09:56:17.909Z,1.83
2023-06-29T09:58:46.947Z,1.97
2023-06-29T10:01:13.930Z,1.77
2023-06-29T10:03:40.746Z,2.70
2023-06-29T10:06:14.727Z,1.63
2023-06-29T10:08:43.117Z,1.40
2023-06-29T10:11:09.837Z,1.73
2023-06-29T10:13:44.259Z,1.10
2023-06-29T10:16:13.397Z,2.00
2023-06-29T10:18:44.800Z,1.67
2023-06-29T10:21:13.046Z,2.53
2023-06-29T10:23:41.846Z,2.07
2023-06-29T10:26:10.696Z,1.70
2023-06-29T10:28:37.870Z,1.97
2023-06-29T10:31:04.678Z,1.30
2023-06-29T10:33:31.423Z,1.50
2023-06-29T10:35:59.716Z,2.20
2023-06-29T10:38:31.671Z,2.00
2023-06-29T10:40:58.544Z,1.70
2023-06-29T10:43:54.885Z,2.23
2023-06-29T10:46:46.621Z,1.77
2023-06-29T10:49:26.591Z,2.00
2023-06-29T10:51:55.362Z,2.00
2023-06-29T10:54:23.703Z,1.80
2023-06-29T10:56:58.760Z,2.00
2023-06-29T10:59:27.036Z,2.50
2023-06-29T11:01:54.429Z,2.60
2023-06-29T11:04:22.737Z,2.00
2023-06-29T11:06:49.609Z,1.90
2023-06-29T11:09:16.424Z,2.47
2023-06-29T11:11:46.104Z,2.43
2023-06-29T11:14:13.275Z,2.70
2023-06-29T11:19:09.529Z,1.20
2023-06-29T11:21:38.552Z,2.37
2023-06-29T11:24:06.700Z,1.70
2023-06-29T11:26:33.481Z,1.93
2023-06-29T11:29:00.198Z,2.60
2023-06-29T11:31:26.922Z,2.40
2023-06-29T11:33:54.889Z,2.47
2023-06-29T11:36:34.546Z,1.67
2023-06-29T11:39:11.640Z,2.20
2023-06-29T11:41:39.345Z,3.27
2023-06-29T11:44:06.971Z,1.97
2023-06-29T11:46:37.259Z,4.30
2023-06-29T11:49:08.185Z,2.13
2023-06-29T11:51:39.294Z,2.70
2023-06-29T11:54:08.363Z,4.00
2023-06-29T11:56:39.502Z,2.53
2023-06-29T11:59:11.338Z,1.80
2023-06-29T12:01:41.206Z,2.17
2023-06-29T12:04:10.088Z,2.63
2023-06-29T12:06:37.554Z,3.23
2023-06-29T12:09:12.117Z,2.37
2023-06-29T12:11:40.717Z,3.00
2023-06-29T12:14:10.800Z,3.10
2023-06-29T12:19:14.457Z,2.47
2023-06-29T12:21:42.125Z,2.47
2023-06-29T12:24:09.204Z,2.23
2023-06-29T12:26:35.872Z,2.77
2023-06-29T12:29:02.563Z,2.20
2023-06-29T12:31:29.856Z,3.10
2023-06-29T12:33:57.813Z,2.50
2023-06-29T12:36:24.501Z,3.40
2023-06-29T12:38:51.949Z,3.80
2023-06-29T12:41:19.761Z,3.83
2023-06-29T12:43:46.419Z,2.07
2023-06-29T12:46:13.048Z,2.70
2023-06-29T12:48:40.347Z,3.03
2023-06-29T12:51:07.783Z,2.80
2023-06-29T12:53:34.954Z,2.87
2023-06-29T12:56:02.118Z,2.30
2023-06-29T12:58:28.839Z,3.27
2023-06-29T13:00:55.571Z,3.47
2023-06-29T13:03:22.568Z,2.83
2023-06-29T13:05:51.196Z,3.70
2023-06-29T13:08:17.957Z,2.80
2023-06-29T13:10:45.578Z,2.43
2023-06-29T13:13:12.225Z,2.00
2023-06-29T13:15:38.887Z,2.53
2023-06-29T13:18:05.594Z,3.00
2023-06-29T13:20:32.240Z,2.87
2023-06-29T13:22:58.948Z,3.07
2023-06-29T13:25:25.718Z,2.27
2023-06-29T13:27:53.172Z,3.03
2023-06-29T13:30:19.906Z,3.43
2023-06-29T13:32:46.657Z,3.50
2023-06-29T13:35:13.299Z,4.90
2023-06-29T13:37:39.944Z,2.87
2023-06-29T13:40:07.970Z,2.40
2023-06-29T13:42:34.725Z,3.13
2023-06-29T13:45:01.413Z,3.50
2023-06-29T13:47:28.735Z,2.90
2023-06-29T13:49:55.474Z,2.77
2023-06-29T13:52:22.137Z,3.40
2023-06-29T13:54:49.150Z,2.67
2023-06-29T13:57:15.973Z,4.20
2023-06-29T13:59:42.589Z,1.90
2023-06-29T14:02:09.417Z,2.27
2023-06-29T14:04:36.190Z,4.43
2023-06-29T14:07:02.985Z,3.87
2023-06-29T14:09:31.090Z,2.90
2023-06-29T14:11:59.813Z,2.20
2023-06-29T14:14:26.722Z,2.73
2023-06-29T14:16:53.366Z,3.50
2023-06-29T14:19:20.506Z,3.93
2023-06-29T14:21:47.537Z,3.43
2023-06-29T14:24:14.223Z,2.53
2023-06-29T14:26:40.817Z,1.80
2023-06-29T14:29:07.477Z,3.10
2023-06-29T14:31:36.232Z,3.43
2023-06-29T14:34:03.410Z,4.60
2023-06-29T14:36:30.229Z,3.90
2023-06-29T14:38:56.872Z,2.03
2023-06-29T14:41:23.526Z,2.40
2023-06-29T14:43:51.198Z,2.43
2023-06-29T14:46:17.971Z,3.30
2023-06-29T14:48:44.618Z,4.90
2023-06-29T14:51:11.363Z,3.67
2023-06-29T14:53:38.069Z,3.17
2023-06-29T14:56:09.126Z,3.07
2023-06-29T14:58:36.207Z,3.83
2023-06-29T15:01:03.169Z,3.47
2023-06-29T15:03:30.004Z,2.97
2023-06-29T15:05:56.987Z,3.50
2023-06-29T15:08:23.937Z,3.30
2023-06-29T15:10:50.570Z,3.43
2023-06-29T15:13:18.050Z,4.00
2023-06-29T15:15:45.571Z,4.20
2023-06-29T15:18:12.651Z,3.53
2023-06-29T15:20:39.346Z,5.30
2023-06-29T15:23:06.238Z,3.23
2023-06-29T15:25:33.216Z,3.50
2023-06-29T15:27:59.962Z,4.00
2023-06-29T15:30:26.602Z,2.93
2023-06-29T15:32:53.286Z,4.13
2023-06-29T15:35:20.009Z,4.10
2023-06-29T15:37:46.693Z,3.90
2023-06-29T15:40:14.161Z,3.23
2023-06-29T15:42:41.120Z,3.33
2023-06-29T15:45:08.150Z,2.60
2023-06-29T15:47:36.771Z,3.20
2023-06-29T15:50:05.806Z,4.03
2023-06-29T15:52:32.748Z,2.53
2023-06-29T15:54:59.731Z,4.90
2023-06-29T15:57:26.561Z,4.20
2023-06-29T15:59:53.182Z,2.57
2023-06-29T16:02:19.858Z,4.30
2023-06-29T16:04:46.520Z,4.47
2023-06-29T16:07:13.216Z,3.00
2023-06-29T16:09:39.908Z,2.63
2023-06-29T16:12:06.911Z,3.00
2023-06-29T16:14:33.696Z,3.27
2023-06-29T16:17:02.033Z,3.63
2023-06-29T16:19:28.779Z,2.97
2023-06-29T16:21:55.577Z,3.47
2023-06-29T16:24:22.205Z,3.40
2023-06-29T16:26:49.759Z,2.57
2023-06-29T16:29:18.375Z,1.97
2023-06-29T16:31:47.681Z,2.70
2023-06-29T16:34:14.643Z,2.53
2023-06-29T16:36:42.227Z,2.33
2023-06-29T16:39:09.007Z,1.97
2023-06-29T16:41:35.926Z,1.60
2023-06-29T16:44:02.745Z,1.87
2023-06-29T16:46:29.610Z,2.13
2023-06-29T16:48:58.297Z,1.60
2023-06-29T16:51:26.166Z,3.40
2023-06-29T16:53:52.866Z,3.10
2023-06-29T16:56:19.551Z,2.63
2023-06-29T16:58:46.886Z,3.33
2023-06-29T17:01:13.581Z,3.50
2023-06-29T17:03:40.610Z,2.40
2023-06-29T17:06:07.409Z,3.50
2023-06-29T17:08:34.169Z,3.67
2023-06-29T17:11:00.888Z,3.47
2023-06-29T17:13:28.674Z,2.77
2023-06-29T17:15:55.486Z,4.47
2023-06-29T17:18:22.192Z,4.53
2023-06-29T17:20:48.973Z,4.07
2023-06-29T17:23:18.594Z,3.73
2023-06-29T17:25:47.258Z,4.30
2023-06-29T17:28:15.559Z,3.07
2023-06-29T17:30:42.570Z,2.73
2023-06-29T17:33:11.376Z,3.17
2023-06-29T17:35:38.455Z,3.37
2023-06-29T17:38:05.764Z,3.37
2023-06-29T17:40:35.896Z,4.33
2023-06-29T17:43:02.577Z,2.87
2023-06-29T17:45:29.431Z,2.90
2023-06-29T17:47:56.419Z,2.40
2023-06-29T17:50:23.454Z,3.80
2023-06-29T17:52:50.441Z,3.63
2023-06-29T17:55:18.250Z,2.23
2023-06-29T17:57:45.212Z,4.83
2023-06-29T18:00:13.821Z,5.03
2023-06-29T18:02:40.512Z,2.60
2023-06-29T18:05:07.632Z,2.17
2023-06-29T18:07:34.469Z,2.87
2023-06-29T18:10:05.571Z,4.80
2023-06-29T18:12:32.380Z,2.43
2023-06-29T18:14:59.094Z,3.53
2023-06-29T18:17:25.898Z,3.43
2023-06-29T18:19:52.562Z,5.77
2023-06-29T18:22:19.229Z,4.37
2023-06-29T18:24:46.139Z,3.80
2023-06-29T18:27:12.855Z,2.07
2023-06-29T18:29:39.516Z,2.47
2023-06-29T18:32:06.710Z,3.00
2023-06-29T18:34:33.338Z,3.20
2023-06-29T18:37:00.064Z,5.00
2023-06-29T18:39:27.562Z,3.50
2023-06-29T18:41:56.250Z,2.87
2023-06-29T18:44:23.071Z,3.00
2023-06-29T18:47:07.741Z,2.90
2023-06-29T18:49:46.332Z,4.77
2023-06-29T18:52:17.979Z,3.50
2023-06-29T18:54:44.806Z,4.57
2023-06-29T18:57:11.790Z,3.53
2023-06-29T18:59:43.050Z,4.63
2023-06-29T19:02:10.029Z,3.73
2023-06-29T19:04:36.729Z,4.63
2023-06-29T19:07:03.650Z,3.63
2023-06-29T19:09:30.486Z,4.53
2023-06-29T19:11:57.524Z,6.00
2023-06-29T19:14:24.225Z,5.20
2023-06-29T19:16:51.021Z,6.50
2023-06-29T19:19:18.071Z,5.43
2023-06-29T19:21:49.175Z,4.50
2023-06-29T19:24:17.407Z,4.43
2023-06-29T19:26:44.145Z,3.83
2023-06-29T19:29:14.726Z,3.37
2023-06-29T19:31:44.478Z,4.20
2023-06-29T19:34:12.003Z,4.90
2023-06-29T19:36:39.338Z,3.00
2023-06-29T19:39:06.029Z,5.03
2023-06-29T19:41:32.723Z,4.13
2023-06-29T19:44:00.627Z,3.90
2023-06-29T19:46:27.430Z,5.20
2023-06-29T19:48:54.164Z,2.60
2023-06-29T19:51:21.152Z,3.43
2023-06-29T19:53:47.999Z,2.80
2023-06-29T19:56:14.689Z,2.97
2023-06-29T19:58:42.701Z,4.37
2023-06-29T20:01:09.775Z,5.20
2023-06-29T20:03:36.496Z,3.67
2023-06-29T20:06:03.947Z,5.07
2023-06-29T20:08:30.582Z,4.60
2023-06-29T20:10:57.226Z,3.87
2023-06-29T20:13:23.882Z,3.50
2023-06-29T20:15:50.860Z,4.50
2023-06-29T20:18:17.850Z,4.87
2023-06-29T20:20:44.572Z,5.67
2023-06-29T20:23:11.926Z,3.67
2023-06-29T20:25:38.799Z,5.40
2023-06-29T20:28:05.840Z,5.13
2023-06-29T20:30:32.486Z,4.70
2023-06-29T20:32:59.271Z,4.50
2023-06-29T20:35:26.101Z,3.80
2023-06-29T20:37:53.192Z,2.93
2023-06-29T20:40:19.976Z,3.93
2023-06-29T20:42:46.879Z,2.30
2023-06-29T20:45:13.667Z,3.17
2023-06-29T20:47:41.462Z,4.23
2023-06-29T20:50:08.588Z,3.27
2023-06-29T20:52:35.315Z,2.83
2023-06-29T20:55:02.114Z,2.93
2023-06-29T20:57:28.754Z,3.43
2023-06-29T20:59:55.492Z,2.90
2023-06-29T21:02:22.415Z,2.60
2023-06-29T21:04:49.490Z,2.60
2023-06-29T21:07:16.438Z,4.47
2023-06-29T21:09:43.161Z,2.97
2023-06-29T21:12:10.569Z,2.80
2023-06-29T21:14:37.491Z,4.40
2023-06-29T21:17:04.485Z,3.20
2023-06-29T21:19:31.472Z,4.23
2023-06-29T21:21:58.849Z,4.50
2023-06-29T21:24:25.767Z,4.30
2023-06-29T21:26:53.820Z,3.90
2023-06-29T21:29:33.841Z,3.50
2023-06-29T21:32:04.276Z,3.87
2023-06-29T21:34:31.703Z,3.83
2023-06-29T21:36:58.889Z,3.10
2023-06-29T21:39:25.602Z,2.17
2023-06-29T21:41:52.824Z,3.90
2023-06-29T21:44:19.702Z,4.10
2023-06-29T21:46:46.522Z,3.00
2023-06-29T21:49:13.464Z,5.20
2023-06-29T21:51:40.222Z,4.83
2023-06-29T21:54:09.352Z,3.10
2023-06-29T21:56:36.648Z,2.73
2023-06-29T21:59:03.343Z,2.80
2023-06-29T22:01:30.334Z,3.13
2023-06-29T22:03:58.130Z,2.00
2023-06-29T22:06:25.222Z,3.17
2023-06-29T22:08:52.604Z,3.00
2023-06-29T22:11:20.167Z,2.43
2023-06-29T22:13:48.225Z,3.70
2023-06-29T22:16:15.455Z,3.37
2023-06-29T22:18:42.116Z,3.60
2023-06-29T22:21:09.328Z,4.10
2023-06-29T22:23:35.948Z,2.80
2023-06-29T22:26:02.609Z,2.80
2023-06-29T22:28:29.265Z,2.60
2023-06-29T22:30:56.012Z,2.27
2023-06-29T22:33:22.635Z,4.07
2023-06-29T22:35:49.732Z,2.60
2023-06-29T22:38:16.717Z,1.97
2023-06-29T22:40:43.425Z,3.13
2023-06-29T22:43:10.061Z,4.20
2023-06-29T22:45:36.860Z,3.60
2023-06-29T22:48:03.663Z,2.07
2023-06-29T22:50:30.424Z,3.23
2023-06-29T22:52:57.108Z,3.60
2023-06-29T22:55:23.966Z,3.07
2023-06-29T22:57:50.714Z,3.07
2023-06-29T23:00:17.551Z,2.73
2023-06-29T23:02:44.513Z,3.60
2023-06-29T23:05:13.069Z,3.13
2023-06-29T23:07:44.872Z,3.57
2023-06-29T23:10:13.899Z,4.23
2023-06-29T23:12:46.412Z,3.10
2023-06-29T23:15:15.096Z,5.03
2023-06-29T23:17:42.559Z,3.23
2023-06-29T23:20:14.258Z,3.43
2023-06-29T23:22:42.252Z,2.70
2023-06-29T23:25:09.163Z,3.27
2023-06-29T23:27:42.382Z,3.57
2023-06-29T23:30:12.431Z,3.00
2023-06-29T23:32:41.365Z,2.50
2023-06-29T23:35:09.803Z,4.27
2023-06-29T23:37:37.050Z,2.77
2023-06-29T23:40:10.134Z,2.00
2023-06-29T23:42:38.550Z,2.93
2023-06-29T23:45:07.561Z,2.70
2023-06-29T23:47:34.327Z,2.50
2023-06-29T23:50:01.009Z,2.40
2023-06-29T23:52:28.211Z,2.00
2023-06-29T23:54:55.959Z,2.83
2023-06-29T23:57:22.986Z,2.40
2023-06-29T23:59:49.601Z,2.40
